createdAt,value
2022-12-17T00:01:37.085Z,51.82
2022-12-17T00:04:22.000Z,51.81
2022-12-17T00:07:06.932Z,52.00
2022-12-17T00:09:52.166Z,51.69
2022-12-17T00:12:37.107Z,51.93
2022-12-17T00:15:21.895Z,51.86
2022-12-17T00:18:07.114Z,52.06
2022-12-17T00:20:51.998Z,52.12
2022-12-17T00:23:37.500Z,51.86
2022-12-17T00:26:22.934Z,51.77
2022-12-17T00:29:07.744Z,52.18
2022-12-17T00:31:52.856Z,52.05
2022-12-17T00:34:41.561Z,52.30
2022-12-17T00:37:26.438Z,52.20
2022-12-17T00:40:11.698Z,52.30
2022-12-17T00:42:56.485Z,52.04
2022-12-17T00:45:41.647Z,52.04
2022-12-17T00:48:26.618Z,52.20
2022-12-17T00:51:13.735Z,51.99
2022-12-17T00:53:59.027Z,52.31
2022-12-17T00:56:43.959Z,52.39
2022-12-17T00:59:29.262Z,52.34
2022-12-17T01:02:14.292Z,52.36
2022-12-17T01:04:59.500Z,52.26
2022-12-17T01:07:44.523Z,52.17
2022-12-17T01:10:29.446Z,52.25
2022-12-17T01:13:14.700Z,52.08
2022-12-17T01:15:59.596Z,52.28
2022-12-17T01:18:44.619Z,52.09
2022-12-17T01:21:29.608Z,51.91
2022-12-17T01:24:14.491Z,52.13
2022-12-17T01:26:59.619Z,52.03
2022-12-17T01:29:44.448Z,52.03
2022-12-17T01:32:29.401Z,52.21
2022-12-17T01:35:14.511Z,51.88
2022-12-17T01:37:59.505Z,51.89
2022-12-17T01:40:44.591Z,52.04
2022-12-17T01:43:32.675Z,52.03
2022-12-17T01:46:17.952Z,51.71
2022-12-17T01:49:05.451Z,52.06
2022-12-17T01:51:50.973Z,51.67
2022-12-17T01:54:37.068Z,52.00
2022-12-17T01:57:22.763Z,51.80
2022-12-17T02:00:11.196Z,51.52
2022-12-17T02:02:56.444Z,51.34
2022-12-17T02:05:49.841Z,51.25
2022-12-17T02:08:44.244Z,51.53
2022-12-17T02:11:47.551Z,51.31
2022-12-17T02:14:55.702Z,51.55
2022-12-17T02:18:03.849Z,51.45
2022-12-17T02:20:50.032Z,51.47
2022-12-17T02:23:54.094Z,51.15
2022-12-17T02:27:02.449Z,51.07
2022-12-17T02:29:49.705Z,51.20
2022-12-17T02:32:36.509Z,51.35
2022-12-17T02:35:23.451Z,51.36
2022-12-17T02:38:08.444Z,51.34
2022-12-17T02:40:54.745Z,51.17
2022-12-17T02:43:43.430Z,51.02
2022-12-17T02:46:28.344Z,51.39
2022-12-17T02:49:13.272Z,51.50
2022-12-17T02:51:59.165Z,51.17
2022-12-17T02:54:48.189Z,51.09
2022-12-17T02:57:33.365Z,51.32
2022-12-17T03:00:18.273Z,51.22
2022-12-17T03:03:03.398Z,51.24
2022-12-17T03:05:48.634Z,51.62
2022-12-17T03:08:33.518Z,51.63
2022-12-17T03:11:18.698Z,51.38
2022-12-17T03:14:03.612Z,51.59
2022-12-17T03:16:48.844Z,51.69
2022-12-17T03:19:34.165Z,51.68
2022-12-17T03:22:19.016Z,51.47
2022-12-17T03:25:04.068Z,51.39
2022-12-17T03:27:48.935Z,51.91
2022-12-17T03:30:36.339Z,51.85
2022-12-17T03:33:22.713Z,51.89
2022-12-17T03:36:11.210Z,51.79
2022-12-17T03:38:56.427Z,51.78
2022-12-17T03:41:41.252Z,51.96
2022-12-17T03:44:25.999Z,51.68
2022-12-17T03:47:11.301Z,51.88
2022-12-17T03:49:56.299Z,51.72
2022-12-17T03:52:41.258Z,52.09
2022-12-17T03:55:26.252Z,51.87
2022-12-17T03:58:11.591Z,52.08
2022-12-17T04:00:56.547Z,52.27
2022-12-17T04:03:41.471Z,52.22
2022-12-17T04:06:26.663Z,52.34
2022-12-17T04:09:11.491Z,52.29
2022-12-17T04:11:56.747Z,52.22
2022-12-17T04:14:41.565Z,52.06
2022-12-17T04:17:26.893Z,52.32
2022-12-17T04:20:11.820Z,52.13
2022-12-17T04:22:56.820Z,51.98
2022-12-17T04:25:42.087Z,51.95
2022-12-17T04:28:26.891Z,52.11
2022-12-17T04:31:12.165Z,52.12
2022-12-17T04:33:57.103Z,51.81
2022-12-17T04:36:42.075Z,52.06
2022-12-17T04:39:27.271Z,52.09
2022-12-17T04:42:12.207Z,51.89
2022-12-17T04:44:57.352Z,52.09
2022-12-17T04:47:42.098Z,51.87
2022-12-17T04:50:37.597Z,52.17
2022-12-17T04:53:23.449Z,52.19
2022-12-17T04:56:08.400Z,51.88
2022-12-17T04:58:56.592Z,52.01
2022-12-17T05:01:41.686Z,51.94
2022-12-17T05:04:26.910Z,52.30
2022-12-17T05:07:11.751Z,51.97
2022-12-17T05:09:57.027Z,52.20
2022-12-17T05:12:42.007Z,52.17
2022-12-17T05:15:26.940Z,52.03
2022-12-17T05:18:12.008Z,51.94
2022-12-17T05:20:56.864Z,52.18
2022-12-17T05:23:41.724Z,51.93
2022-12-17T05:26:36.914Z,51.90
2022-12-17T05:29:22.305Z,52.15
2022-12-17T05:32:08.107Z,52.00
2022-12-17T05:34:52.899Z,51.75
2022-12-17T05:37:39.264Z,52.01
2022-12-17T05:40:24.468Z,52.11
2022-12-17T05:43:16.484Z,51.74
2022-12-17T05:46:01.866Z,51.67
2022-12-17T05:48:47.141Z,51.96
2022-12-17T05:51:37.039Z,52.11
2022-12-17T05:54:23.641Z,51.81
2022-12-17T05:57:08.485Z,51.94
2022-12-17T05:59:53.682Z,52.12
2022-12-17T06:02:38.616Z,52.02
2022-12-17T06:05:24.149Z,51.96
2022-12-17T06:08:09.165Z,51.90
2022-12-17T06:10:54.087Z,51.90
2022-12-17T06:13:39.105Z,52.03
2022-12-17T06:16:24.024Z,51.72
2022-12-17T06:19:09.272Z,51.96
2022-12-17T06:21:54.342Z,51.87
2022-12-17T06:24:42.727Z,51.76
2022-12-17T06:27:35.239Z,52.91
2022-12-17T06:30:20.053Z,55.70
2022-12-17T06:33:05.260Z,57.88
2022-12-17T06:35:50.127Z,59.44
2022-12-17T06:38:35.125Z,60.36
2022-12-17T06:41:20.877Z,60.46
2022-12-17T06:44:06.027Z,60.99
2022-12-17T06:46:51.343Z,60.03
2022-12-17T06:49:36.501Z,57.48
2022-12-17T06:52:21.545Z,55.54
2022-12-17T06:55:06.750Z,53.90
2022-12-17T06:57:51.723Z,52.80
2022-12-17T07:00:36.963Z,51.67
2022-12-17T07:03:22.027Z,50.95
2022-12-17T07:06:07.115Z,50.77
2022-12-17T07:08:51.891Z,51.53
2022-12-17T07:11:37.268Z,52.49
2022-12-17T07:14:22.505Z,53.54
2022-12-17T07:17:07.815Z,54.37
2022-12-17T07:19:52.719Z,54.42
2022-12-17T07:22:37.563Z,53.59
2022-12-17T07:25:22.792Z,52.58
2022-12-17T07:28:14.361Z,51.88
2022-12-17T07:30:59.512Z,51.36
2022-12-17T07:33:45.008Z,50.66
2022-12-17T07:36:29.980Z,50.44
2022-12-17T07:39:14.950Z,50.60
2022-12-17T07:41:59.779Z,50.43
2022-12-17T07:44:46.413Z,50.05
2022-12-17T07:47:31.360Z,50.36
2022-12-17T07:50:16.164Z,50.14
2022-12-17T07:53:01.500Z,50.30
2022-12-17T07:55:46.273Z,50.51
2022-12-17T07:58:31.335Z,50.97
2022-12-17T08:01:19.646Z,50.89
2022-12-17T08:04:04.901Z,51.36
2022-12-17T08:06:50.119Z,51.41
2022-12-17T08:09:35.090Z,51.19
2022-12-17T08:12:20.175Z,51.23
2022-12-17T08:15:05.306Z,51.54
2022-12-17T08:17:50.101Z,51.97
2022-12-17T08:20:35.222Z,51.99
2022-12-17T08:23:21.278Z,52.16
2022-12-17T08:26:06.239Z,52.42
2022-12-17T08:28:51.556Z,52.73
2022-12-17T08:31:36.793Z,52.67
2022-12-17T08:34:21.986Z,52.71
2022-12-17T08:37:06.813Z,52.67
2022-12-17T08:39:51.602Z,52.64
2022-12-17T08:42:36.760Z,52.61
2022-12-17T08:45:21.660Z,52.80
2022-12-17T08:48:06.673Z,53.05
2022-12-17T08:50:51.705Z,52.86
2022-12-17T08:53:37.113Z,53.09
2022-12-17T08:56:22.545Z,53.42
2022-12-17T08:59:07.432Z,53.24
2022-12-17T09:01:52.823Z,53.13
2022-12-17T09:04:37.894Z,53.10
2022-12-17T09:07:22.677Z,53.29
2022-12-17T09:10:07.876Z,53.04
2022-12-17T09:12:52.773Z,53.10
2022-12-17T09:15:37.850Z,53.29
2022-12-17T09:18:22.962Z,52.95
2022-12-17T09:21:14.406Z,52.93
2022-12-17T09:23:59.660Z,53.11
2022-12-17T09:26:44.555Z,53.00
2022-12-17T09:29:29.705Z,52.81
2022-12-17T09:32:14.657Z,52.53
2022-12-17T09:34:59.490Z,52.49
2022-12-17T09:37:44.594Z,52.29
2022-12-17T09:40:34.685Z,52.17
2022-12-17T09:43:25.378Z,51.95
2022-12-17T09:46:32.074Z,51.63
2022-12-17T09:49:21.899Z,50.88
2022-12-17T09:52:07.114Z,50.92
2022-12-17T09:55:00.954Z,50.84
2022-12-17T09:57:51.793Z,50.75
2022-12-17T10:00:41.946Z,49.47
2022-12-17T10:03:33.026Z,49.84
2022-12-17T10:06:22.812Z,49.82
2022-12-17T10:09:12.097Z,49.85
2022-12-17T10:11:59.947Z,50.04
2022-12-17T10:14:44.709Z,49.30
2022-12-17T10:17:34.226Z,49.29
2022-12-17T10:20:19.942Z,49.42
2022-12-17T10:23:06.662Z,49.25
2022-12-17T10:26:11.943Z,49.07
2022-12-17T10:28:56.849Z,48.91
2022-12-17T10:31:44.870Z,48.89
2022-12-17T10:34:34.309Z,48.74
2022-12-17T10:37:19.534Z,48.50
2022-12-17T10:40:13.807Z,48.44
2022-12-17T10:42:59.043Z,48.53
2022-12-17T10:45:45.391Z,48.71
2022-12-17T10:48:36.344Z,48.84
2022-12-17T10:51:22.059Z,48.61
2022-12-17T10:54:08.379Z,48.54
2022-12-17T10:56:53.443Z,48.71
2022-12-17T10:59:54.396Z,48.68
2022-12-17T11:02:44.497Z,48.81
2022-12-17T11:05:59.240Z,48.88
2022-12-17T11:08:45.007Z,48.96
2022-12-17T11:11:30.508Z,48.34
2022-12-17T11:14:16.691Z,48.87
2022-12-17T11:17:27.947Z,48.42
2022-12-17T11:20:19.684Z,48.71
2022-12-17T11:23:09.378Z,48.97
2022-12-17T11:26:08.770Z,49.11
2022-12-17T11:28:54.100Z,49.53
2022-12-17T11:31:48.202Z,49.70
2022-12-17T11:34:47.472Z,49.56
2022-12-17T11:37:32.255Z,49.14
2022-12-17T11:40:20.453Z,49.48
2022-12-17T11:43:17.077Z,49.82
2022-12-17T11:46:21.174Z,49.59
2022-12-17T11:49:09.152Z,49.56
2022-12-17T11:52:06.232Z,48.73
2022-12-17T11:54:57.099Z,49.33
2022-12-17T11:57:48.691Z,49.07
2022-12-17T12:00:42.109Z,49.29
2022-12-17T12:03:43.600Z,48.87
2022-12-17T12:06:35.376Z,49.40
2022-12-17T12:09:23.594Z,49.23
2022-12-17T12:12:11.588Z,48.53
2022-12-17T12:15:15.720Z,48.83
2022-12-17T12:18:09.880Z,48.64
2022-12-17T12:21:19.172Z,48.25
2022-12-17T12:24:11.751Z,48.57
2022-12-17T12:27:06.754Z,47.78
2022-12-17T12:29:51.682Z,48.04
2022-12-17T12:32:40.071Z,47.25
2022-12-17T12:35:31.146Z,47.86
2022-12-17T12:38:16.598Z,47.85
2022-12-17T12:41:13.437Z,48.21
2022-12-17T12:44:02.874Z,47.34
2022-12-17T12:47:00.065Z,47.37
2022-12-17T12:49:52.126Z,47.52
2022-12-17T12:52:39.546Z,47.63
2022-12-17T12:55:24.498Z,47.82
2022-12-17T12:58:18.592Z,47.77
2022-12-17T13:01:06.837Z,47.30
2022-12-17T13:04:04.477Z,47.58
2022-12-17T13:06:50.635Z,47.20
2022-12-17T13:09:22.639Z,46.75
2022-12-17T13:11:50.872Z,47.29
2022-12-17T13:14:20.682Z,47.46
2022-12-17T13:16:47.117Z,46.31
2022-12-17T13:19:21.348Z,46.78
2022-12-17T13:21:47.754Z,46.93
2022-12-17T13:24:24.493Z,46.60
2022-12-17T13:26:50.931Z,46.97
2022-12-17T13:29:17.528Z,46.00
2022-12-17T13:31:50.753Z,46.46
2022-12-17T13:34:23.494Z,46.52
2022-12-17T13:37:08.346Z,46.66
2022-12-17T13:39:47.293Z,47.12
2022-12-17T13:42:18.154Z,46.96
2022-12-17T13:44:45.811Z,46.48
2022-12-17T13:47:22.868Z,46.32
2022-12-17T13:50:24.380Z,45.94
2022-12-17T13:52:39.628Z,46.13
2022-12-17T13:55:07.501Z,46.47
2022-12-17T13:57:36.171Z,46.14
2022-12-17T14:00:03.355Z,46.54
2022-12-17T14:02:31.469Z,46.52
2022-12-17T14:05:02.822Z,46.37
2022-12-17T14:07:34.992Z,45.81
2022-12-17T14:10:02.731Z,46.12
2022-12-17T14:12:30.071Z,45.93
2022-12-17T14:14:58.627Z,45.78
2022-12-17T14:17:38.156Z,45.85
2022-12-17T14:20:11.265Z,45.60
2022-12-17T14:22:39.686Z,46.04
2022-12-17T14:25:13.364Z,46.03
2022-12-17T14:27:41.396Z,45.44
2022-12-17T14:30:26.628Z,45.14
2022-12-17T14:32:53.779Z,44.90
2022-12-17T14:35:27.501Z,44.84
2022-12-17T14:37:54.066Z,45.07
2022-12-17T14:40:21.124Z,44.74
2022-12-17T14:42:47.979Z,44.96
2022-12-17T14:45:14.327Z,44.93
2022-12-17T14:47:40.970Z,44.78
2022-12-17T14:50:23.403Z,44.74
2022-12-17T14:52:53.139Z,45.01
2022-12-17T14:55:22.768Z,44.73
2022-12-17T14:57:49.631Z,45.06
2022-12-17T15:00:16.121Z,44.97
2022-12-17T15:02:43.950Z,44.80
2022-12-17T15:05:14.600Z,44.99
2022-12-17T15:07:41.207Z,44.64
2022-12-17T15:10:12.108Z,44.92
2022-12-17T15:12:40.509Z,44.75
2022-12-17T15:15:07.157Z,45.15
2022-12-17T15:17:33.569Z,45.15
2022-12-17T15:19:59.897Z,45.13
2022-12-17T15:22:26.265Z,44.98
2022-12-17T15:24:52.617Z,45.00
2022-12-17T15:27:19.081Z,45.11
2022-12-17T15:29:46.002Z,45.27
2022-12-17T15:32:22.594Z,45.45
2022-12-17T15:34:49.269Z,45.61
2022-12-17T15:37:17.765Z,45.36
2022-12-17T15:39:49.488Z,45.30
2022-12-17T15:42:41.809Z,45.62
2022-12-17T15:45:08.741Z,45.57
2022-12-17T15:47:35.122Z,45.53
2022-12-17T15:50:01.631Z,45.65
2022-12-17T15:52:28.317Z,45.50
2022-12-17T15:54:54.658Z,45.78
2022-12-17T15:57:21.083Z,45.79
2022-12-17T15:59:47.462Z,45.81
2022-12-17T16:02:14.027Z,45.91
2022-12-17T16:04:41.125Z,45.88
2022-12-17T16:07:07.687Z,46.02
2022-12-17T16:09:34.078Z,46.16
2022-12-17T16:12:00.458Z,46.26
2022-12-17T16:14:26.847Z,46.02
2022-12-17T16:16:53.511Z,46.34
2022-12-17T16:19:23.003Z,46.07
2022-12-17T16:21:49.664Z,46.12
2022-12-17T16:24:16.046Z,46.42
2022-12-17T16:26:42.431Z,46.41
2022-12-17T16:29:08.918Z,46.38
2022-12-17T16:31:35.750Z,46.52
2022-12-17T16:34:02.291Z,46.36
2022-12-17T16:36:28.863Z,46.63
2022-12-17T16:38:55.326Z,46.24
2022-12-17T16:41:22.458Z,46.43
2022-12-17T16:43:48.942Z,46.67
2022-12-17T16:46:26.452Z,46.31
